Главная страница
METAR-TAF:

METAR-TAF

Аэропорты :

Гостомель, Украина

Антонов

широта: 50-36-01N, долгота: 030-11-37E, высота над уровнем моря: 157 м

Текущие метеонаблюдения

Эта сводка был подготовлена 18 минут назад, в 17:30 UTC
Ветер 4 Узел от северно-северо-западный
Температура 8°C
Влажность 42%
Давление 1014 hPa
Видимость 10 км и более

METAR: UKKM 281730Z AUTO 34002MPS 9999 NCD 08/M04 Q1014

Время: 20:48 (17:48 UTC)

Прогноз

Эта сводка был подготовлена 47 минут назад, в 17:01 UTC
Прогноз действительный с 28-го 18 UTC до 29-го 18 UTC
Ветер 10 Узел от западно-северо-западный
Видимость 10 км и более
Отдельные облака на высоте 2500 фута
изменения
С 29-го 11 UTC до 29-го 13 UTC
Ветер 10 Узел от западный-юго-западный

TAF: UKKM 281701Z 2818/2918 29005MPS 9999 SCT025 BECMG 2911/2913 24005MPS TX12/2912Z TN02/2903Z

Метеонаблюдения и прогнозы для более 4000 аэропортов (сводки METAR и TAF).

Имеющиеся станции представлены на карте желтыми и красными точками.

Чтобы увидеть название станции, наведите на нее мышь.

Затем щелкните, чтобы увидеть метеонаблюдения и метеопрогнозы.

Управление картой: чтобы увеличить масштаб, щелкните зеленые кнопки с черным крестиком; чтобы уменьшить масштаб, щелкните зеленую кнопку с тире; для просмотра соседних карт щелкайте зеленые стрелки.


METAR-TAF: